• Join FlightAware (Why Join?)
  • Login
  • US Flag 
11:06AM EDT


 

Airport Tracker/Info


-or-


 

Live Flight TrackerFlight Track Log ✈ N34VR ✈ 22-Jun-2013 ✈ KFXE - SVBM / BRM

Flight Track Log - Related Links

Times and Time Zones

All times are in EDT time to prevent confusion due to time zone crossing. See the N34VR flight status page for this flight to view local times or setup timezone preferences in your user account.

Time Position Orientation Groundspeed Altitude Reporting Facility
EDT Latitude Longitude Course Direction KTS MPH feet Rate Location/Type
02:19PM 26.2003 -80.1378 89° East 168 193 1,300  Level Miami Center
02:20PM 26.2008 -80.1053 89° East 205 236 2,100 1,380 Climbing Miami Center
02:21PM 26.2089 -80.0314 83° East 237 273 3,500 1,260 Climbing Miami Center
02:22PM 26.2214 -79.9300 82° East 258 297 5,000 1,980 Climbing Miami Center
02:23PM 26.2294 -79.8469 84° East 263 303 8,100 2,640 Climbing Miami Center
02:24PM 26.2417 -79.7614 81° East 273 314 10,300 2,160 Climbing Miami Center
02:25PM 26.2497 -79.6689 84° East 285 328 12,500 2,160 Climbing Miami Center
02:26PM 26.2619 -79.5767 82° East 297 342 14,700 2,040 Climbing Miami Center
02:27PM 26.2469 -79.4814 100° East 297 342 16,600 1,800 Climbing Miami Center
02:28PM 26.1875 -79.4081 132° Southeast 283 326 18,400 1,680 Climbing Miami Center
02:29PM 26.1197 -79.3397 138° Southeast 305 351 20,000 1,620 Climbing Miami Center
02:30PM 26.0481 -79.2642 137° Southeast 323 372 21,700 1,680 Climbing Miami Center
02:31PM 25.9803 -79.1864 134° Southeast 349 402 23,400 1,620 Climbing Miami Center
02:32PM 25.9106 -79.1067 134° Southeast 356 410 25,000 960 Climbing Miami Center
02:33PM 25.8303 -79.0197 136° Southeast 379 436 25,400 480 Climbing Miami Center
02:34PM 25.7397 -78.9328 139° Southeast 405 466 26,000 1,200 Climbing Miami Center
02:35PM 25.6553 -78.8367 134° Southeast 421 484 27,900 2,280 Climbing Miami Center
02:36PM 25.5792 -78.7456 133° Southeast 421 484 30,600 2,220 Climbing Miami Center
02:37PM 25.5450 -78.6322 108° East 390 449 32,400 1,560 Climbing Miami Center
02:38PM 25.5297 -78.5122 98° East 373 429 33,800 1,260 Climbing Miami Center
02:39PM 25.4642 -78.4056 124° Southeast 399 459 35,000 600 Climbing Miami Center
02:40PM 25.3814 -78.2986 131° Southeast 427 491 35,000  Level Miami Center
02:41PM 25.2906 -78.1872 132° Southeast 458 527 35,000  Level Miami Center
02:42PM 25.1914 -78.0761 135° Southeast 481 554 35,000  Level Miami Center
02:43PM 25.0875 -77.9694 137° Southeast 503 579 35,000  Level Miami Center
02:44PM 24.9819 -77.8608 137° Southeast 514 592 35,000  Level Miami Center
02:45PM 24.8739 -77.7544 138° Southeast 519 597 35,000  Level Miami Center
02:46PM 24.7678 -77.6439 137° Southeast 519 597 35,000  Level Miami Center
02:47PM 24.6597 -77.5358 138° Southeast 519 597 35,100 1,260 Climbing Miami Center
02:48PM 24.5556 -77.4369 139° Southeast 514 592 37,600 2,100 Climbing Miami Center
02:49PM 24.4536 -77.3406 139° Southeast 502 578 39,400 1,620 Climbing Miami Center
02:50PM 24.3578 -77.2467 138° Southeast 482 555 40,900 1,320 Climbing Miami Center
02:51PM 24.2617 -77.1506 138° Southeast 472 543 42,100 1,260 Climbing Miami Center
02:52PM 24.1719 -77.0547 136° Southeast 459 528 43,500 840 Climbing Miami Center
02:53PM 24.0803 -76.9636 138° Southeast 454 522 43,800 300 Climbing Miami Center
02:54PM 23.9967 -76.8794 137° Southeast 454 522 44,100 480 Climbing Miami Center
02:55PM 23.9006 -76.7861 138° Southeast 454 522 44,800 420 Climbing Miami Center
02:56PM 23.8083 -76.6908 137° Southeast 454 522 45,000 60 Climbing Miami Center
02:57PM 23.7081 -76.5956 139° Southeast 466 536 45,000  Level Miami Center
02:58PM 23.6053 -76.4961 138° Southeast 475 547 45,000  Level Miami Center
02:59PM 23.5028 -76.3989 139° Southeast 485 558 45,000  Level Miami Center
03:00PM 23.4000 -76.3019 139° Southeast 485 558 45,000  Level Miami Center
03:01PM 23.2972 -76.2006 138° Southeast 485 558 45,000  Level Miami Center
03:02PM 23.1964 -76.0972 137° Southeast 491 565 45,000  Level Miami Center
03:03PM 23.0956 -75.9983 138° Southeast 491 565 45,000  Level Miami Center
03:04PM 22.9925 -75.8975 138° Southeast 491 565 45,000  Level Miami Center
03:05PM 22.8936 -75.7992 137° Southeast 491 565 45,000  Level Miami Center
03:06PM 22.7906 -75.7031 139° Southeast 491 565 45,000  Level Miami Center
03:07PM 22.6894 -75.6047 138° Southeast 491 565 45,000  Level Miami Center
03:08PM 22.5883 -75.5092 139° Southeast 491 565 45,000  Level Miami Center
03:09PM 22.4892 -75.4111 138° Southeast 491 565 45,000  Level Miami Center
03:10PM 22.3858 -75.3136 139° Southeast 491 565 45,000  Level Miami Center
03:11PM 22.2825 -75.2206 140° Southeast 491 565 45,000  Level Miami Center
03:12PM 22.1833 -75.1208 137° Southeast 491 565 45,000  Level Miami Center
03:13PM 22.0778 -75.0258 140° Southeast 491 565 45,000  Level Miami Center
03:14PM 21.9722 -74.9289 140° Southeast 491 565 45,000  Level Miami Center
03:15PM 21.8706 -74.8319 138° Southeast 491 565 45,000  Level Miami Center
03:16PM 21.7669 -74.7350 139° Southeast 491 565 45,000  Level Miami Center
03:17PM 21.6589 -74.6250 137° Southeast 491 565 45,000  Level Miami Center
03:18PM 21.5550 -74.5264 139° Southeast 491 565 45,000  Level Miami Center
03:19PM 21.4533 -74.4300 139° Southeast 491 565 45,000  Level Miami Center
03:20PM 21.3536 -74.3339 138° Southeast 486 559 45,000  Level Miami Center
03:21PM 21.2497 -74.2356 139° Southeast 491 565 45,000  Level Miami Center
03:22PM 21.1481 -74.1419 139° Southeast 491 565 45,000  Level Miami Center
03:23PM 21.0417 -74.0439 139° Southeast 491 565 45,000  Level Miami Center
03:24PM 20.9356 -73.9483 140° Southeast 497 572 45,000  Level Miami Center
03:25PM 20.8317 -73.8506 139° Southeast 492 566 45,000  Level Miami Center
03:26PM 20.7294 -73.7575 140° Southeast 487 560 45,000  Level Miami Center
03:27PM 20.6272 -73.6578 138° Southeast 493 567 45,000  Level Miami Center
03:28PM 20.5211 -73.5631 140° Southeast 493 567 45,000  Level Miami Center
03:29PM 20.4189 -73.4703 140° Southeast 493 567 45,000  Level Miami Center
03:30PM 20.3189 -73.3778 139° Southeast 487 560 45,000  Level Miami Center
03:31PM 20.2144 -73.2875 141° Southeast 487 560 45,000  Level Miami Center
03:32PM 20.1083 -73.2064 144° Southeast 482 555 45,000  Level Miami Center
03:33PM 20.0006 -73.1386 149° Southeast 463 533 45,000  Level Miami Center
03:34PM 19.8883 -73.0689 150° Southeast 463 533 45,000  Level Miami Center
03:35PM 19.7742 -73.0036 152° Southeast 468 539 45,000  Level Miami Center
03:36PM 19.6597 -72.9364 151° Southeast 468 539 45,000  Level Miami Center
03:37PM 19.5436 -72.8692 151° Southeast 468 539 45,000  Level Miami Center
03:38PM 19.4272 -72.8044 152° Southeast 468 539 45,000  Level Miami Center
03:39PM 19.3089 -72.7375 152° Southeast 473 544 45,000  Level Miami Center
03:40PM 19.1903 -72.6731 153° Southeast 479 551 45,100 -180 Climbing Miami Center
03:41PM 19.0719 -72.6042 151° Southeast 479 551 44,700 -60 Descending Miami Center
03:42PM 18.9594 -72.5353 150° Southeast 488 562 45,000 120 Climbing Miami Center
03:43PM 18.8389 -72.4667 152° Southeast 481 554 45,000  Level Miami Center
03:44PM 18.7206 -72.4025 153° Southeast 481 554 45,000  Level Miami Center
03:45PM 18.6042 -72.3383 152° Southeast 476 548 45,000  Level Miami Center
03:46PM 18.4856 -72.2636 149° Southeast 483 556 45,000  Level Miami Center
03:47PM 18.3708 -72.1842 147° Southeast 490 564 45,000  Level Miami Center
03:48PM 18.2483 -72.1250 155° Southeast 489 563 45,000  Level Miami Center
03:49PM 18.1297 -72.0528 150° Southeast 489 563 45,000  Level Miami Center
03:50PM 18.0131 -71.9847 151° Southeast 489 563 45,000  Level Miami Center
03:51PM 17.9067 -71.9036 144° Southeast 473 544 45,000  Level Miami Center
03:52PM 17.7761 -71.8514 159° South 494 568 45,000  Level Miami Center
03:53PM 17.6553 -71.7817 151° Southeast 489 563 45,000  Level Miami Center
03:54PM 17.5386 -71.7119 150° Southeast 489 563 45,000  Level Miami Center
03:55PM 17.4222 -71.6422 150° Southeast 489 563 45,000  Level Miami Center
03:57PM 17.2339 -71.5410 153° Southeast  Level FlightAware Approximate
04:04PM 16.4582 -71.1264 153° Southeast  Level FlightAware Approximate
04:05PM 16.3473 -71.0675 153° Southeast  Level FlightAware Approximate
04:06PM 16.2363 -71.0086 153° Southeast  Level FlightAware Approximate
04:07PM 16.1254 -70.9498 153° Southeast  Level FlightAware Approximate
04:08PM 16.0145 -70.8910 153° Southeast  Level FlightAware Approximate
04:09PM 15.9042 -70.8306 152° Southeast  Level FlightAware Approximate
04:10PM 15.7942 -70.7700 152° Southeast  Level FlightAware Approximate
04:11PM 15.6842 -70.7095 152° Southeast  Level FlightAware Approximate
04:12PM 15.5741 -70.6491 152° Southeast  Level FlightAware Approximate
04:13PM 15.4641 -70.5888 152° Southeast  Level FlightAware Approximate
04:14PM 15.3540 -70.5285 152° Southeast  Level FlightAware Approximate
04:15PM 15.2439 -70.4683 152° Southeast  Level FlightAware Approximate
04:16PM 15.1338 -70.4081 152° Southeast  Level FlightAware Approximate
04:17PM 15.0236 -70.3480 152° Southeast  Level FlightAware Approximate
04:18PM 14.9135 -70.2880 152° Southeast  Level FlightAware Approximate
04:19PM 14.8033 -70.2280 152° Southeast  Level FlightAware Approximate
04:20PM 14.6931 -70.1681 152° Southeast  Level FlightAware Approximate
04:21PM 14.5829 -70.1083 152° Southeast  Level FlightAware Approximate
04:22PM 14.4727 -70.0485 152° Southeast  Level FlightAware Approximate
04:23PM 14.3598 -69.9993 178° South  Level FlightAware Approximate
04:24PM 14.2354 -69.9953 178° South  Level FlightAware Approximate
04:25PM 14.1110 -69.9913 178° South  Level FlightAware Approximate
04:26PM 13.9866 -69.9874 178° South  Level FlightAware Approximate
04:27PM 13.8622 -69.9835 178° South  Level FlightAware Approximate
04:28PM 13.7377 -69.9795 178° South  Level FlightAware Approximate
04:29PM 13.6133 -69.9756 178° South  Level FlightAware Approximate
04:30PM 13.4889 -69.9717 178° South  Level FlightAware Approximate
04:31PM 13.3645 -69.9678 178° South  Level FlightAware Approximate
04:32PM 13.2401 -69.9638 178° South  Level FlightAware Approximate
04:33PM 13.1156 -69.9599 178° South  Level FlightAware Approximate
04:34PM 12.9912 -69.9560 178° South  Level FlightAware Approximate
04:35PM 12.8668 -69.9521 178° South  Level FlightAware Approximate
04:36PM 12.7424 -69.9464 177° South  Level FlightAware Approximate
04:37PM 12.6181 -69.9386 177° South  Level FlightAware Approximate
04:38PM 12.4939 -69.9322 170° South  Level FlightAware Approximate
04:39PM 12.3714 -69.9099 170° South  Level FlightAware Approximate
04:40PM 12.2511 -69.8782 162° South  Level FlightAware Approximate
04:41PM 12.1296 -69.8521 171° South  Level FlightAware Approximate
04:42PM 12.0098 -69.8179 164° South  Level FlightAware Approximate
04:43PM 11.8890 -69.7878 169° South  Level FlightAware Approximate
04:44PM 11.7670 -69.7626 166° South  Level FlightAware Approximate
04:45PM 11.6467 -69.7300 164° South  Level FlightAware Approximate
04:46PM 11.5268 -69.6957 164° South  Level FlightAware Approximate
04:47PM 11.4057 -69.6667 168° South  Level FlightAware Approximate
04:48PM 11.2838 -69.6406 168° South  Level FlightAware Approximate
04:49PM 11.1622 -69.6138 168° South  Level FlightAware Approximate
04:50PM 11.0405 -69.5867 168° South  Level FlightAware Approximate
04:51PM 10.9189 -69.5597 168° South  Level FlightAware Approximate
04:52PM 10.7973 -69.5325 164° South  Level FlightAware Approximate
04:53PM 10.6779 -69.4967 164° South  Level FlightAware Approximate
04:54PM 10.5576 -69.4644 166° South  Level FlightAware Approximate
04:55PM 10.4367 -69.4342 166° South  Level FlightAware Approximate
04:56PM 10.3146 -69.4096 169° South  Level FlightAware Approximate
04:57PM 10.1937 -69.3833 180° South  Level FlightAware Approximate
04:58PM 10.0716 -69.3596 166° South  Level FlightAware Approximate
04:59PM 10.0500 -69.3667 315° West  Level FlightAware Approximate
05:00PM 10.0428 -69.3586 315° West  Level Estimated
05:01PM 10.0428 -69.3586 315° West  Level Estimated
05:02PM 10.0428 -69.3586 315° West  Level Estimated
05:03PM 10.0428 -69.3586 315° West  Level Estimated
05:04PM 10.0428 -69.3586 315° West  Level Estimated
05:05PM 10.0428 -69.3586 315° West  Level Estimated
05:06PM 10.0428 -69.3586 315° West  Level Estimated
05:07PM 10.0428 -69.3586 315° West  Level Estimated
05:08PM 10.0428 -69.3586 315° West  Level Estimated
05:09PM 10.0428 -69.3586 315° West  Level Estimated
05:10PM 10.0428 -69.3586 315° West  Level Estimated
05:11PM 10.0428 -69.3586 315° West  Level Estimated
05:12PM 10.0428 -69.3586 315° West  Level Estimated
05:13PM 10.0428 -69.3586 315° West  Level Estimated
05:14PM 10.0428 -69.3586 315° West  Level Estimated
05:15PM 10.0428 -69.3586 315° West  Level Estimated
05:16PM 10.0428 -69.3586 315° West  Level Estimated
05:17PM 10.0428 -69.3586 315° West  Level Estimated